sensor_id;sensor_type;location;lat;lon;timestamp;pressure;altitude;pressure_sealevel;temperature;humidity
80410;BME280;69746;45.596;10.154;2023-12-14T00:02:15;98322.41;;;14.88;55.73
80410;BME280;69746;45.596;10.154;2023-12-14T00:04:41;98318.03;;;14.87;55.77
80410;BME280;69746;45.596;10.154;2023-12-14T00:07:08;98327.09;;;14.88;55.88
80410;BME280;69746;45.596;10.154;2023-12-14T00:09:34;98335.31;;;14.88;55.89
80410;BME280;69746;45.596;10.154;2023-12-14T00:12:03;98331.47;;;14.89;55.93
80410;BME280;69746;45.596;10.154;2023-12-14T00:14:29;98328.72;;;14.89;56.00
80410;BME280;69746;45.596;10.154;2023-12-14T00:16:55;98325.16;;;14.88;55.74
80410;BME280;69746;45.596;10.154;2023-12-14T00:19:24;98338.88;;;14.88;55.99
80410;BME280;69746;45.596;10.154;2023-12-14T00:21:50;98327.09;;;14.88;55.75
80410;BME280;69746;45.596;10.154;2023-12-14T00:24:16;98332.56;;;14.88;55.65
80410;BME280;69746;45.596;10.154;2023-12-14T00:26:42;98328.19;;;14.87;55.90
80410;BME280;69746;45.596;10.154;2023-12-14T00:29:08;98335.31;;;14.88;55.88
80410;BME280;69746;45.596;10.154;2023-12-14T00:31:34;98336.13;;;14.88;56.14
80410;BME280;69746;45.596;10.154;2023-12-14T00:34:00;98346.28;;;14.88;55.99
80410;BME280;69746;45.596;10.154;2023-12-14T00:36:26;98354.53;;;14.88;55.87
80410;BME280;69746;45.596;10.154;2023-12-14T00:38:52;98355.34;;;14.88;56.04
80410;BME280;69746;45.596;10.154;2023-12-14T00:41:18;98360.03;;;14.88;55.85
80410;BME280;69746;45.596;10.154;2023-12-14T00:43:46;98345.47;;;14.87;55.76
80410;BME280;69746;45.596;10.154;2023-12-14T00:46:12;98352.59;;;14.88;55.80
80410;BME280;69746;45.596;10.154;2023-12-14T00:48:39;98362.78;;;14.88;55.67
80410;BME280;69746;45.596;10.154;2023-12-14T00:51:05;98356.16;;;14.89;55.82
80410;BME280;69746;45.596;10.154;2023-12-14T00:53:31;98365.50;;;14.88;55.87
80410;BME280;69746;45.596;10.154;2023-12-14T00:55:57;98373.75;;;14.88;55.85
80410;BME280;69746;45.596;10.154;2023-12-14T00:58:23;98380.88;;;14.89;55.76
80410;BME280;69746;45.596;10.154;2023-12-14T01:00:49;98382.81;;;14.88;55.79
80410;BME280;69746;45.596;10.154;2023-12-14T01:03:16;98379.25;;;14.88;55.76
80410;BME280;69746;45.596;10.154;2023-12-14T01:05:41;98378.13;;;14.89;56.06
80410;BME280;69746;45.596;10.154;2023-12-14T01:08:07;98383.63;;;14.89;55.87
80410;BME280;69746;45.596;10.154;2023-12-14T01:10:33;98389.91;;;14.89;55.75
80410;BME280;69746;45.596;10.154;2023-12-14T01:13:01;98399.28;;;14.88;55.88
80410;BME280;69746;45.596;10.154;2023-12-14T01:15:27;98396.53;;;14.88;55.74
80410;BME280;69746;45.596;10.154;2023-12-14T01:17:52;98408.31;;;14.89;55.82
80410;BME280;69746;45.596;10.154;2023-12-14T01:20:18;98404.75;;;14.88;55.78
80410;BME280;69746;45.596;10.154;2023-12-14T01:22:45;98404.75;;;14.88;55.97
80410;BME280;69746;45.596;10.154;2023-12-14T01:25:11;98410.25;;;14.88;55.87
80410;BME280;69746;45.596;10.154;2023-12-14T01:27:37;98416.56;;;14.89;55.83
80410;BME280;69746;45.596;10.154;2023-12-14T01:30:07;98419.31;;;14.89;55.89
80410;BME280;69746;45.596;10.154;2023-12-14T01:32:33;98423.69;;;14.90;55.83
80410;BME280;69746;45.596;10.154;2023-12-14T01:34:59;98433.84;;;14.89;56.03
80410;BME280;69746;45.596;10.154;2023-12-14T01:37:25;98426.72;;;14.88;55.98
80410;BME280;69746;45.596;10.154;2023-12-14T01:39:54;98444.00;;;14.89;55.85
80410;BME280;69746;45.596;10.154;2023-12-14T01:42:20;98440.44;;;14.88;55.82
80410;BME280;69746;45.596;10.154;2023-12-14T01:44:46;98443.19;;;14.88;55.87
80410;BME280;69746;45.596;10.154;2023-12-14T01:47:13;98447.56;;;14.89;55.83
80410;BME280;69746;45.596;10.154;2023-12-14T01:49:41;98443.72;;;14.90;55.83
80410;BME280;69746;45.596;10.154;2023-12-14T01:52:08;98444.00;;;14.89;55.87
80410;BME280;69746;45.596;10.154;2023-12-14T01:54:34;98451.44;;;14.88;55.95
80410;BME280;69746;45.596;10.154;2023-12-14T01:57:00;98451.44;;;14.88;55.90
80410;BME280;69746;45.596;10.154;2023-12-14T01:59:29;98458.56;;;14.89;55.69
80410;BME280;69746;45.596;10.154;2023-12-14T02:01:56;98464.03;;;14.89;55.95
80410;BME280;69746;45.596;10.154;2023-12-14T02:04:24;98454.19;;;14.88;55.75
80410;BME280;69746;45.596;10.154;2023-12-14T02:06:51;98456.09;;;14.88;55.86
80410;BME280;69746;45.596;10.154;2023-12-14T02:09:17;98464.03;;;14.89;55.97
80410;BME280;69746;45.596;10.154;2023-12-14T02:11:42;98460.47;;;14.89;55.96
80410;BME280;69746;45.596;10.154;2023-12-14T02:14:14;98454.19;;;14.88;55.56
80410;BME280;69746;45.596;10.154;2023-12-14T02:16:40;98458.84;;;14.88;55.83
80410;BME280;69746;45.596;10.154;2023-12-14T02:19:06;98460.47;;;14.89;55.82
80410;BME280;69746;45.596;10.154;2023-12-14T02:21:32;98462.41;;;14.88;55.91
80410;BME280;69746;45.596;10.154;2023-12-14T02:23:58;98456.94;;;14.88;55.88
80410;BME280;69746;45.596;10.154;2023-12-14T02:26:24;98463.22;;;14.89;56.06
80410;BME280;69746;45.596;10.154;2023-12-14T02:28:50;98458.84;;;14.88;55.95
80410;BME280;69746;45.596;10.154;2023-12-14T02:31:20;98474.22;;;14.89;55.89
80410;BME280;69746;45.596;10.154;2023-12-14T02:33:46;98474.22;;;14.89;55.70
80410;BME280;69746;45.596;10.154;2023-12-14T02:36:13;98468.72;;;14.89;55.85
80410;BME280;69746;45.596;10.154;2023-12-14T02:38:39;98476.97;;;14.89;56.00
80410;BME280;69746;45.596;10.154;2023-12-14T02:41:05;98476.97;;;14.89;55.70
80410;BME280;69746;45.596;10.154;2023-12-14T02:43:31;98478.88;;;14.88;55.64
80410;BME280;69746;45.596;10.154;2023-12-14T02:45:58;98482.44;;;14.89;55.85
80410;BME280;69746;45.596;10.154;2023-12-14T02:48:28;98485.19;;;14.89;55.87
80410;BME280;69746;45.596;10.154;2023-12-14T02:50:55;98483.25;;;14.89;55.89
80410;BME280;69746;45.596;10.154;2023-12-14T02:53:21;98486.31;;;14.88;55.88
80410;BME280;69746;45.596;10.154;2023-12-14T02:55:47;98497.00;;;14.89;55.86
80410;BME280;69746;45.596;10.154;2023-12-14T02:58:13;98488.75;;;14.89;55.83
80410;BME280;69746;45.596;10.154;2023-12-14T03:00:40;98497.81;;;14.90;55.94
80410;BME280;69746;45.596;10.154;2023-12-14T03:03:06;98504.94;;;14.91;55.78
80410;BME280;69746;45.596;10.154;2023-12-14T03:05:32;98505.22;;;14.89;55.74
80410;BME280;69746;45.596;10.154;2023-12-14T03:08:01;98505.22;;;14.89;55.86
80410;BME280;69746;45.596;10.154;2023-12-14T03:10:27;98511.53;;;14.90;55.92
80410;BME280;69746;45.596;10.154;2023-12-14T03:12:55;98514.28;;;14.90;55.70
80410;BME280;69746;45.596;10.154;2023-12-14T03:15:23;98516.22;;;14.89;55.78
80410;BME280;69746;45.596;10.154;2023-12-14T03:17:51;98513.47;;;14.89;55.97
80410;BME280;69746;45.596;10.154;2023-12-14T03:20:19;98516.22;;;14.89;55.83
80410;BME280;69746;45.596;10.154;2023-12-14T03:22:46;98510.72;;;14.89;55.90
80410;BME280;69746;45.596;10.154;2023-12-14T03:25:14;98511.53;;;14.90;55.74
80410;BME280;69746;45.596;10.154;2023-12-14T03:27:41;98507.16;;;14.89;55.82
80410;BME280;69746;45.596;10.154;2023-12-14T03:30:09;98513.47;;;14.89;55.76
80410;BME280;69746;45.596;10.154;2023-12-14T03:32:37;98509.91;;;14.89;55.89
80410;BME280;69746;45.596;10.154;2023-12-14T03:35:03;98508.78;;;14.90;55.86
80410;BME280;69746;45.596;10.154;2023-12-14T03:37:30;98507.16;;;14.89;55.99
80410;BME280;69746;45.596;10.154;2023-12-14T03:39:56;98510.72;;;14.89;55.78
80410;BME280;69746;45.596;10.154;2023-12-14T03:42:22;98526.38;;;14.89;55.75
80410;BME280;69746;45.596;10.154;2023-12-14T03:44:48;98520.88;;;14.89;56.01
80410;BME280;69746;45.596;10.154;2023-12-14T03:47:14;98518.94;;;14.89;55.83
80410;BME280;69746;45.596;10.154;2023-12-14T03:49:41;98521.69;;;14.89;56.03
80410;BME280;69746;45.596;10.154;2023-12-14T03:52:08;98530.75;;;14.90;55.79
80410;BME280;69746;45.596;10.154;2023-12-14T03:54:35;98527.19;;;14.89;55.95
80410;BME280;69746;45.596;10.154;2023-12-14T03:57:01;98528.81;;;14.90;55.75
80410;BME280;69746;45.596;10.154;2023-12-14T03:59:28;98534.31;;;14.90;55.86
80410;BME280;69746;45.596;10.154;2023-12-14T04:01:55;98532.69;;;14.89;55.79
80410;BME280;69746;45.596;10.154;2023-12-14T04:04:21;98538.97;;;14.90;55.80
80410;BME280;69746;45.596;10.154;2023-12-14T04:06:50;98544.47;;;14.90;55.74
80410;BME280;69746;45.596;10.154;2023-12-14T04:09:17;98541.44;;;14.91;55.82
80410;BME280;69746;45.596;10.154;2023-12-14T04:11:43;98539.81;;;14.90;55.85
80410;BME280;69746;45.596;10.154;2023-12-14T04:14:10;98542.84;;;14.89;55.71
80410;BME280;69746;45.596;10.154;2023-12-14T04:16:36;98548.03;;;14.90;55.79
80410;BME280;69746;45.596;10.154;2023-12-14T04:19:02;98542.53;;;14.90;56.04
80410;BME280;69746;45.596;10.154;2023-12-14T04:21:29;98549.97;;;14.90;55.84
80410;BME280;69746;45.596;10.154;2023-12-14T04:23:55;98547.22;;;14.90;55.82
80410;BME280;69746;45.596;10.154;2023-12-14T04:26:21;98556.28;;;14.90;55.73
80410;BME280;69746;45.596;10.154;2023-12-14T04:28:47;98564.50;;;14.90;55.76
80410;BME280;69746;45.596;10.154;2023-12-14T04:31:13;98561.75;;;14.90;55.74
80410;BME280;69746;45.596;10.154;2023-12-14T04:33:39;98572.75;;;14.90;55.81
80410;BME280;69746;45.596;10.154;2023-12-14T04:36:06;98576.59;;;14.89;55.70
80410;BME280;69746;45.596;10.154;2023-12-14T04:38:33;98578.75;;;14.92;55.81
80410;BME280;69746;45.596;10.154;2023-12-14T04:41:00;98580.97;;;14.90;55.74
80410;BME280;69746;45.596;10.154;2023-12-14T04:43:27;98587.28;;;14.91;55.71
80410;BME280;69746;45.596;10.154;2023-12-14T04:45:55;98589.22;;;14.90;56.08
80410;BME280;69746;45.596;10.154;2023-12-14T04:48:22;98583.72;;;14.90;55.74
80410;BME280;69746;45.596;10.154;2023-12-14T04:50:48;98589.22;;;14.90;55.76
80410;BME280;69746;45.596;10.154;2023-12-14T04:53:14;98587.28;;;14.91;55.79
80410;BME280;69746;45.596;10.154;2023-12-14T04:55:40;98593.91;;;14.90;56.00
80410;BME280;69746;45.596;10.154;2023-12-14T04:58:06;98598.78;;;14.93;55.69
80410;BME280;69746;45.596;10.154;2023-12-14T05:00:33;98598.28;;;14.91;55.93
80410;BME280;69746;45.596;10.154;2023-12-14T05:02:58;98608.44;;;14.90;55.61
80410;BME280;69746;45.596;10.154;2023-12-14T05:05:25;98612.00;;;14.91;56.06
80410;BME280;69746;45.596;10.154;2023-12-14T05:07:51;98613.94;;;14.90;55.95
80410;BME280;69746;45.596;10.154;2023-12-14T05:10:20;98607.31;;;14.91;55.97
80410;BME280;69746;45.596;10.154;2023-12-14T05:12:45;98610.06;;;14.91;55.84
80410;BME280;69746;45.596;10.154;2023-12-14T05:15:12;98613.63;;;14.92;55.72
80410;BME280;69746;45.596;10.154;2023-12-14T05:17:39;98613.13;;;14.90;56.03
80410;BME280;69746;45.596;10.154;2023-12-14T05:20:09;98619.41;;;14.90;55.87
80410;BME280;69746;45.596;10.154;2023-12-14T05:22:36;98623.81;;;14.91;55.93
80410;BME280;69746;45.596;10.154;2023-12-14T05:25:02;98632.84;;;14.92;55.90
80410;BME280;69746;45.596;10.154;2023-12-14T05:27:28;98637.53;;;14.91;55.82
80410;BME280;69746;45.596;10.154;2023-12-14T05:29:53;98646.56;;;14.92;55.67
80410;BME280;69746;45.596;10.154;2023-12-14T05:32:20;98650.44;;;14.91;55.84
80410;BME280;69746;45.596;10.154;2023-12-14T05:34:45;98659.50;;;14.91;55.87
80410;BME280;69746;45.596;10.154;2023-12-14T05:37:11;98660.59;;;14.90;55.85
80410;BME280;69746;45.596;10.154;2023-12-14T05:39:41;98655.94;;;14.91;55.75
80410;BME280;69746;45.596;10.154;2023-12-14T05:42:07;98662.25;;;14.91;56.06
80410;BME280;69746;45.596;10.154;2023-12-14T05:44:33;98663.06;;;14.92;55.94
80410;BME280;69746;45.596;10.154;2023-12-14T05:46:59;98666.63;;;14.92;56.09
80410;BME280;69746;45.596;10.154;2023-12-14T05:49:25;98666.63;;;14.92;55.94
80410;BME280;69746;45.596;10.154;2023-12-14T05:51:51;98660.59;;;14.90;56.00
80410;BME280;69746;45.596;10.154;2023-12-14T05:54:18;98668.84;;;14.90;55.83
80410;BME280;69746;45.596;10.154;2023-12-14T05:56:44;98679.53;;;14.92;55.94
80410;BME280;69746;45.596;10.154;2023-12-14T05:59:10;98681.47;;;14.91;55.75
80410;BME280;69746;45.596;10.154;2023-12-14T06:01:36;98691.31;;;14.92;55.88
80410;BME280;69746;45.596;10.154;2023-12-14T06:04:02;98688.59;;;14.92;56.03
80410;BME280;69746;45.596;10.154;2023-12-14T06:06:28;98693.25;;;14.92;55.74
80410;BME280;69746;45.596;10.154;2023-12-14T06:08:54;98692.44;;;14.91;55.73
80410;BME280;69746;45.596;10.154;2023-12-14T06:11:22;98696.81;;;14.92;55.82
80410;BME280;69746;45.596;10.154;2023-12-14T06:13:48;98700.69;;;14.91;55.82
80410;BME280;69746;45.596;10.154;2023-12-14T06:16:15;98697.63;;;14.93;55.82
80410;BME280;69746;45.596;10.154;2023-12-14T06:18:41;98707.81;;;14.92;55.97
80410;BME280;69746;45.596;10.154;2023-12-14T06:21:11;98710.53;;;14.92;55.97
80410;BME280;69746;45.596;10.154;2023-12-14T06:23:37;98726.19;;;14.92;56.03
80410;BME280;69746;45.596;10.154;2023-12-14T06:26:04;98716.84;;;14.93;55.93
80410;BME280;69746;45.596;10.154;2023-12-14T06:28:30;98717.97;;;14.92;55.72
80410;BME280;69746;45.596;10.154;2023-12-14T06:30:56;98724.28;;;14.92;55.80
80410;BME280;69746;45.596;10.154;2023-12-14T06:33:22;98732.50;;;14.92;55.97
80410;BME280;69746;45.596;10.154;2023-12-14T06:35:49;98730.59;;;14.93;55.85
80410;BME280;69746;45.596;10.154;2023-12-14T06:38:15;98719.06;;;14.91;55.90
80410;BME280;69746;45.596;10.154;2023-12-14T06:40:41;98727.31;;;14.91;55.87
80410;BME280;69746;45.596;10.154;2023-12-14T06:43:08;98729.25;;;14.90;55.97
80410;BME280;69746;45.596;10.154;2023-12-14T06:45:37;98727.31;;;14.91;55.91
80410;BME280;69746;45.596;10.154;2023-12-14T06:48:03;98730.06;;;14.91;55.83
80410;BME280;69746;45.596;10.154;2023-12-14T06:50:30;98738.00;;;14.92;55.91
80410;BME280;69746;45.596;10.154;2023-12-14T06:52:56;98744.31;;;14.93;55.92
80410;BME280;69746;45.596;10.154;2023-12-14T06:55:22;98755.28;;;14.93;55.83
80410;BME280;69746;45.596;10.154;2023-12-14T06:57:48;98752.56;;;14.93;55.91
80410;BME280;69746;45.596;10.154;2023-12-14T07:00:14;98755.28;;;14.93;56.05
80410;BME280;69746;45.596;10.154;2023-12-14T07:02:40;98755.28;;;14.93;55.83
80410;BME280;69746;45.596;10.154;2023-12-14T07:05:06;98760.78;;;14.93;55.92
80410;BME280;69746;45.596;10.154;2023-12-14T07:07:33;98772.59;;;14.93;56.05
80410;BME280;69746;45.596;10.154;2023-12-14T07:09:58;98773.69;;;14.92;55.77
80410;BME280;69746;45.596;10.154;2023-12-14T07:12:24;98773.41;;;14.94;56.13
80410;BME280;69746;45.596;10.154;2023-12-14T07:14:50;98769.84;;;14.93;55.92
80410;BME280;69746;45.596;10.154;2023-12-14T07:17:17;98782.75;;;14.93;56.05
80410;BME280;69746;45.596;10.154;2023-12-14T07:19:44;98785.50;;;14.93;55.92
80410;BME280;69746;45.596;10.154;2023-12-14T07:22:11;98785.50;;;14.93;56.08
80410;BME280;69746;45.596;10.154;2023-12-14T07:24:40;98781.94;;;14.92;55.96
80410;BME280;69746;45.596;10.154;2023-12-14T07:27:06;98783.56;;;14.93;55.83
80410;BME280;69746;45.596;10.154;2023-12-14T07:29:32;98788.25;;;14.93;55.91
80410;BME280;69746;45.596;10.154;2023-12-14T07:31:58;98793.75;;;14.93;56.03
80410;BME280;69746;45.596;10.154;2023-12-14T07:34:25;98794.56;;;14.93;56.02
80410;BME280;69746;45.596;10.154;2023-12-14T07:36:54;98799.22;;;14.93;55.89
80410;BME280;69746;45.596;10.154;2023-12-14T07:39:21;98803.91;;;14.92;55.86
80410;BME280;69746;45.596;10.154;2023-12-14T07:41:47;98810.22;;;14.93;55.87
80410;BME280;69746;45.596;10.154;2023-12-14T07:44:16;98819.25;;;14.93;56.04
80410;BME280;69746;45.596;10.154;2023-12-14T07:46:42;98827.50;;;14.93;55.90
80410;BME280;69746;45.596;10.154;2023-12-14T07:49:08;98830.25;;;14.93;56.02
80410;BME280;69746;45.596;10.154;2023-12-14T07:51:34;98833.28;;;14.92;55.99
80410;BME280;69746;45.596;10.154;2023-12-14T07:54:01;98842.34;;;14.92;55.97
80410;BME280;69746;45.596;10.154;2023-12-14T07:56:29;98845.09;;;14.92;55.95
80410;BME280;69746;45.596;10.154;2023-12-14T07:58:55;98851.41;;;14.93;56.08
80410;BME280;69746;45.596;10.154;2023-12-14T08:01:21;98856.88;;;14.93;55.96
80410;BME280;69746;45.596;10.154;2023-12-14T08:03:47;98854.13;;;14.93;55.92
80410;BME280;69746;45.596;10.154;2023-12-14T08:06:14;98850.56;;;14.92;55.96
80410;BME280;69746;45.596;10.154;2023-12-14T08:08:39;98853.31;;;14.92;55.96
80410;BME280;69746;45.596;10.154;2023-12-14T08:11:05;98851.41;;;14.93;55.94
80410;BME280;69746;45.596;10.154;2023-12-14T08:13:31;98855.25;;;14.92;55.93
80410;BME280;69746;45.596;10.154;2023-12-14T08:15:57;98861.56;;;14.92;55.90
80410;BME280;69746;45.596;10.154;2023-12-14T08:18:23;98870.63;;;14.93;55.93
80410;BME280;69746;45.596;10.154;2023-12-14T08:20:49;98872.53;;;14.92;56.03
80410;BME280;69746;45.596;10.154;2023-12-14T08:23:21;98879.66;;;14.93;55.94
80410;BME280;69746;45.596;10.154;2023-12-14T08:25:49;98878.84;;;14.93;55.98
80410;BME280;69746;45.596;10.154;2023-12-14T08:28:16;98881.59;;;14.93;55.89
80410;BME280;69746;45.596;10.154;2023-12-14T08:30:43;98892.59;;;14.93;55.95
80410;BME280;69746;45.596;10.154;2023-12-14T08:33:09;98898.91;;;14.93;55.89
80410;BME280;69746;45.596;10.154;2023-12-14T08:35:35;98905.50;;;14.92;55.96
80410;BME280;69746;45.596;10.154;2023-12-14T08:38:01;98914.53;;;14.93;55.93
80410;BME280;69746;45.596;10.154;2023-12-14T08:40:27;98917.28;;;14.93;56.02
80410;BME280;69746;45.596;10.154;2023-12-14T08:42:56;98920.03;;;14.93;55.92
80410;BME280;69746;45.596;10.154;2023-12-14T08:45:22;98919.22;;;14.92;56.02
80410;BME280;69746;45.596;10.154;2023-12-14T08:47:48;98919.22;;;14.92;56.11
80410;BME280;69746;45.596;10.154;2023-12-14T08:50:14;98919.22;;;14.92;55.84
80410;BME280;69746;45.596;10.154;2023-12-14T08:52:41;98928.56;;;14.91;55.93
80410;BME280;69746;45.596;10.154;2023-12-14T08:55:08;98926.63;;;14.92;56.12
80410;BME280;69746;45.596;10.154;2023-12-14T08:57:35;98924.72;;;14.92;55.92
80410;BME280;69746;45.596;10.154;2023-12-14T09:00:01;98932.13;;;14.92;56.02
80410;BME280;69746;45.596;10.154;2023-12-14T09:02:30;98941.19;;;14.92;55.92
80410;BME280;69746;45.596;10.154;2023-12-14T09:04:56;98946.69;;;14.92;56.04
80410;BME280;69746;45.596;10.154;2023-12-14T09:07:22;98960.41;;;14.92;55.93
80410;BME280;69746;45.596;10.154;2023-12-14T09:09:48;98953.28;;;14.91;55.96
80410;BME280;69746;45.596;10.154;2023-12-14T09:12:17;98953.28;;;14.91;55.87
80410;BME280;69746;45.596;10.154;2023-12-14T09:14:43;98965.91;;;14.92;55.88
80410;BME280;69746;45.596;10.154;2023-12-14T09:17:09;98960.41;;;14.92;55.88
80410;BME280;69746;45.596;10.154;2023-12-14T09:19:35;98962.34;;;14.92;55.93
80410;BME280;69746;45.596;10.154;2023-12-14T09:22:01;98959.88;;;14.90;55.88
80410;BME280;69746;45.596;10.154;2023-12-14T09:24:26;98968.09;;;14.90;56.02
80410;BME280;69746;45.596;10.154;2023-12-14T09:26:53;98970.56;;;14.92;55.92
80410;BME280;69746;45.596;10.154;2023-12-14T09:29:18;98984.31;;;14.92;56.05
80410;BME280;69746;45.596;10.154;2023-12-14T09:31:48;98992.53;;;14.92;55.91
80410;BME280;69746;45.596;10.154;2023-12-14T09:34:14;98987.03;;;14.92;55.86
80410;BME280;69746;45.596;10.154;2023-12-14T09:36:40;98998.84;;;14.92;55.89
80410;BME280;69746;45.596;10.154;2023-12-14T09:39:07;98998.84;;;14.92;55.82
80410;BME280;69746;45.596;10.154;2023-12-14T09:41:37;99004.34;;;14.92;55.88
80410;BME280;69746;45.596;10.154;2023-12-14T09:44:05;99002.69;;;14.91;55.87
80410;BME280;69746;45.596;10.154;2023-12-14T09:46:35;99009.84;;;14.92;55.90
80410;BME280;69746;45.596;10.154;2023-12-14T09:49:02;99011.75;;;14.92;56.01
80410;BME280;69746;45.596;10.154;2023-12-14T09:51:30;99015.59;;;14.91;55.93
80410;BME280;69746;45.596;10.154;2023-12-14T09:53:56;99013.69;;;14.91;55.86
80410;BME280;69746;45.596;10.154;2023-12-14T09:56:25;99015.31;;;14.92;55.91
80410;BME280;69746;45.596;10.154;2023-12-14T09:58:52;99016.44;;;14.91;55.87
80410;BME280;69746;45.596;10.154;2023-12-14T10:01:23;99023.56;;;14.92;55.97
80410;BME280;69746;45.596;10.154;2023-12-14T10:03:50;99013.97;;;14.90;55.91
80410;BME280;69746;45.596;10.154;2023-12-14T10:06:17;99023.84;;;14.91;55.93
80410;BME280;69746;45.596;10.154;2023-12-14T10:08:54;99024.66;;;14.91;55.97
80410;BME280;69746;45.596;10.154;2023-12-14T10:11:21;99016.44;;;14.91;56.01
80410;BME280;69746;45.596;10.154;2023-12-14T10:13:47;99020.81;;;14.92;56.01
80410;BME280;69746;45.596;10.154;2023-12-14T10:16:27;99023.56;;;14.92;55.56
80410;BME280;69746;45.596;10.154;2023-12-14T10:18:55;99030.16;;;14.91;55.92
80410;BME280;69746;45.596;10.154;2023-12-14T10:21:22;99021.91;;;14.91;56.12
80410;BME280;69746;45.596;10.154;2023-12-14T10:23:48;99028.53;;;14.90;56.04
80410;BME280;69746;45.596;10.154;2023-12-14T10:26:14;99032.91;;;14.91;55.98
80410;BME280;69746;45.596;10.154;2023-12-14T10:28:40;99037.28;;;14.92;56.11
80410;BME280;69746;45.596;10.154;2023-12-14T10:31:07;99032.09;;;14.91;55.93
80410;BME280;69746;45.596;10.154;2023-12-14T10:33:35;99036.47;;;14.92;55.84
80410;BME280;69746;45.596;10.154;2023-12-14T10:36:02;99033.72;;;14.92;56.01
80410;BME280;69746;45.596;10.154;2023-12-14T10:38:29;99038.41;;;14.91;56.06
80410;BME280;69746;45.596;10.154;2023-12-14T10:40:58;99050.19;;;14.92;55.82
80410;BME280;69746;45.596;10.154;2023-12-14T10:43:24;99058.16;;;14.93;55.98
80410;BME280;69746;45.596;10.154;2023-12-14T10:45:52;99051.03;;;14.92;55.84
80410;BME280;69746;45.596;10.154;2023-12-14T10:48:22;99056.50;;;14.92;55.93
80410;BME280;69746;45.596;10.154;2023-12-14T10:50:50;99047.75;;;14.90;55.96
80410;BME280;69746;45.596;10.154;2023-12-14T10:53:17;99065.84;;;14.91;55.96
80410;BME280;69746;45.596;10.154;2023-12-14T10:55:44;99055.69;;;14.92;55.95
80410;BME280;69746;45.596;10.154;2023-12-14T10:58:11;99063.94;;;14.92;56.01
80410;BME280;69746;45.596;10.154;2023-12-14T11:00:37;99061.47;;;14.90;56.08
80410;BME280;69746;45.596;10.154;2023-12-14T11:03:04;99069.41;;;14.92;56.05
80410;BME280;69746;45.596;10.154;2023-12-14T11:05:33;99073.00;;;14.92;56.14
80410;BME280;69746;45.596;10.154;2023-12-14T11:08:01;99080.41;;;14.92;55.97
80410;BME280;69746;45.596;10.154;2023-12-14T11:10:51;99078.47;;;14.92;55.79
80410;BME280;69746;45.596;10.154;2023-12-14T11:13:21;99078.47;;;14.92;55.91
80410;BME280;69746;45.596;10.154;2023-12-14T11:15:50;99076.00;;;14.91;56.00
80410;BME280;69746;45.596;10.154;2023-12-14T11:18:19;99086.72;;;14.92;56.15
80410;BME280;69746;45.596;10.154;2023-12-14T11:23:35;99095.78;;;14.93;55.70
80410;BME280;69746;45.596;10.154;2023-12-14T11:26:04;99085.34;;;14.90;56.05
80410;BME280;69746;45.596;10.154;2023-12-14T11:28:32;99089.75;;;14.91;55.97
80410;BME280;69746;45.596;10.154;2023-12-14T11:31:00;99087.53;;;14.93;55.83
80410;BME280;69746;45.596;10.154;2023-12-14T11:33:27;99092.22;;;14.92;56.02
80410;BME280;69746;45.596;10.154;2023-12-14T11:35:54;99087.53;;;14.93;56.06
80410;BME280;69746;45.596;10.154;2023-12-14T11:38:24;99085.91;;;14.92;56.24
80410;BME280;69746;45.596;10.154;2023-12-14T11:40:50;99093.03;;;14.93;56.05
80410;BME280;69746;45.596;10.154;2023-12-14T11:43:16;99084.78;;;14.93;56.01
80410;BME280;69746;45.596;10.154;2023-12-14T11:45:42;99092.22;;;14.92;56.20
80410;BME280;69746;45.596;10.154;2023-12-14T11:48:10;99094.94;;;14.92;56.11
80410;BME280;69746;45.596;10.154;2023-12-14T11:50:40;99086.72;;;14.92;55.93
80410;BME280;69746;45.596;10.154;2023-12-14T11:53:07;99089.47;;;14.92;56.01
80410;BME280;69746;45.596;10.154;2023-12-14T11:55:38;99094.66;;;14.94;56.05
80410;BME280;69746;45.596;10.154;2023-12-14T11:58:05;99095.78;;;14.93;56.19
80410;BME280;69746;45.596;10.154;2023-12-14T12:00:32;99097.69;;;14.92;56.19
80410;BME280;69746;45.596;10.154;2023-12-14T12:03:09;99097.41;;;14.94;56.10
80410;BME280;69746;45.596;10.154;2023-12-14T12:05:43;99093.03;;;14.93;55.98
80410;BME280;69746;45.596;10.154;2023-12-14T12:08:10;99090.28;;;14.93;56.01
80410;BME280;69746;45.596;10.154;2023-12-14T12:10:40;99098.53;;;14.93;55.89
80410;BME280;69746;45.596;10.154;2023-12-14T12:13:12;99101.25;;;14.93;55.94
80410;BME280;69746;45.596;10.154;2023-12-14T12:15:39;99101.25;;;14.93;56.13
80410;BME280;69746;45.596;10.154;2023-12-14T12:18:09;99093.84;;;14.93;56.13
80410;BME280;69746;45.596;10.154;2023-12-14T12:20:36;99096.59;;;14.93;56.05
80410;BME280;69746;45.596;10.154;2023-12-14T12:23:02;99101.25;;;14.93;55.95
80410;BME280;69746;45.596;10.154;2023-12-14T12:25:30;99107.56;;;14.93;56.30
80410;BME280;69746;45.596;10.154;2023-12-14T12:28:00;99104.00;;;14.93;56.10
80410;BME280;69746;45.596;10.154;2023-12-14T12:30:26;99098.53;;;14.93;55.95
80410;BME280;69746;45.596;10.154;2023-12-14T12:32:53;99091.38;;;14.92;56.25
80410;BME280;69746;45.596;10.154;2023-12-14T12:35:20;99091.38;;;14.92;56.05
80410;BME280;69746;45.596;10.154;2023-12-14T12:37:46;99096.59;;;14.93;56.07
80410;BME280;69746;45.596;10.154;2023-12-14T12:40:12;99094.94;;;14.92;56.15
80410;BME280;69746;45.596;10.154;2023-12-14T12:42:41;99096.59;;;14.93;56.02
80410;BME280;69746;45.596;10.154;2023-12-14T12:45:10;99093.03;;;14.93;56.22
80410;BME280;69746;45.596;10.154;2023-12-14T12:47:36;99094.94;;;14.92;56.09
80410;BME280;69746;45.596;10.154;2023-12-14T12:50:02;99087.81;;;14.91;56.20
80410;BME280;69746;45.596;10.154;2023-12-14T12:52:28;99088.34;;;14.93;56.30